createdAt,value
2023-02-26T00:00:13.696Z,1.40
2023-02-26T00:02:40.828Z,1.55
2023-02-26T00:05:08.324Z,1.52
2023-02-26T00:07:35.916Z,1.60
2023-02-26T00:10:03.160Z,2.78
2023-02-26T00:12:30.875Z,1.70
2023-02-26T00:14:58.221Z,1.60
2023-02-26T00:17:34.748Z,1.50
2023-02-26T00:20:02.460Z,1.58
2023-02-26T00:22:29.738Z,1.60
2023-02-26T00:24:56.879Z,1.75
2023-02-26T00:27:24.078Z,1.50
2023-02-26T00:29:51.431Z,1.58
2023-02-26T00:32:18.863Z,1.83
2023-02-26T00:34:46.766Z,1.70
2023-02-26T00:37:28.969Z,1.58
2023-02-26T00:40:02.244Z,1.73
2023-02-26T00:42:29.566Z,1.73
2023-02-26T00:44:56.837Z,2.05
2023-02-26T00:47:30.689Z,2.05
2023-02-26T00:49:57.809Z,2.13
2023-02-26T00:52:29.782Z,1.80
2023-02-26T00:54:56.939Z,1.85
2023-02-26T00:57:24.137Z,1.80
2023-02-26T00:59:51.252Z,2.00
2023-02-26T01:02:18.464Z,2.00
2023-02-26T01:04:46.710Z,1.90
2023-02-26T01:07:14.162Z,1.83
2023-02-26T01:09:41.488Z,1.70
2023-02-26T01:12:11.057Z,2.00
2023-02-26T01:14:38.383Z,1.92
2023-02-26T01:17:22.116Z,2.17
2023-02-26T01:19:54.427Z,2.30
2023-02-26T01:22:23.910Z,1.52
2023-02-26T01:24:55.002Z,1.85
2023-02-26T01:27:22.279Z,1.83
2023-02-26T01:29:49.587Z,1.70
2023-02-26T01:32:21.171Z,1.70
2023-02-26T01:34:58.165Z,1.60
2023-02-26T01:37:34.259Z,1.60
2023-02-26T01:40:17.192Z,1.40
2023-02-26T01:42:45.297Z,1.50
2023-02-26T01:45:22.251Z,1.63
2023-02-26T01:47:52.576Z,1.60
2023-02-26T01:50:21.566Z,1.60
2023-02-26T01:52:48.715Z,1.60
2023-02-26T01:55:26.157Z,1.52
2023-02-26T01:57:55.404Z,1.58
2023-02-26T02:00:22.967Z,1.75
2023-02-26T02:02:51.086Z,1.58
2023-02-26T02:05:41.708Z,1.70
2023-02-26T02:08:08.951Z,1.90
2023-02-26T02:10:36.168Z,1.60
2023-02-26T02:13:08.024Z,2.00
2023-02-26T02:15:38.211Z,1.65
2023-02-26T02:18:13.205Z,1.70
2023-02-26T02:20:52.717Z,2.08
2023-02-26T02:23:40.136Z,1.75
2023-02-26T02:26:07.443Z,2.10
2023-02-26T02:28:54.477Z,1.83
2023-02-26T02:31:24.478Z,1.98
2023-02-26T02:34:09.728Z,1.60
2023-02-26T02:36:54.187Z,1.80
2023-02-26T02:39:25.703Z,1.60
2023-02-26T02:41:58.970Z,1.58
2023-02-26T02:44:27.255Z,1.10
2023-02-26T02:46:56.015Z,1.30
2023-02-26T02:49:26.260Z,1.20
2023-02-26T02:52:14.048Z,1.27
2023-02-26T02:54:44.037Z,1.23
2023-02-26T02:57:40.354Z,1.48
2023-02-26T03:00:10.728Z,0.88
2023-02-26T03:02:44.456Z,1.40
2023-02-26T03:05:11.699Z,1.20
2023-02-26T03:07:42.520Z,1.15
2023-02-26T03:10:11.165Z,1.25
2023-02-26T03:12:38.312Z,1.20
2023-02-26T03:15:06.615Z,1.13
2023-02-26T03:17:37.111Z,2.15
2023-02-26T03:20:16.595Z,1.10
2023-02-26T03:22:59.007Z,1.33
2023-02-26T03:25:38.964Z,1.08
2023-02-26T03:28:13.172Z,1.23
2023-02-26T03:30:43.239Z,1.23
2023-02-26T03:33:14.452Z,1.27
2023-02-26T03:36:04.097Z,1.65
2023-02-26T03:38:41.754Z,1.52
2023-02-26T03:41:22.582Z,1.42
2023-02-26T03:43:56.248Z,1.50
2023-02-26T03:46:27.372Z,1.40
2023-02-26T03:48:56.187Z,1.40
2023-02-26T03:51:24.384Z,1.38
2023-02-26T03:53:55.302Z,1.40
2023-02-26T03:56:26.854Z,1.38
2023-02-26T03:58:54.235Z,1.25
2023-02-26T04:01:24.119Z,1.65
2023-02-26T04:03:56.626Z,1.30
2023-02-26T04:06:24.586Z,1.42
2023-02-26T04:08:52.421Z,1.23
2023-02-26T04:11:20.714Z,1.63
2023-02-26T04:13:47.974Z,1.40
2023-02-26T04:16:15.465Z,1.40
2023-02-26T04:18:42.677Z,1.52
2023-02-26T04:21:15.176Z,1.30
2023-02-26T04:23:42.557Z,1.30
2023-02-26T04:26:09.709Z,1.20
2023-02-26T04:28:37.908Z,1.58
2023-02-26T04:31:10.256Z,1.42
2023-02-26T04:33:37.675Z,1.50
2023-02-26T04:36:05.098Z,1.55
2023-02-26T04:38:32.243Z,1.50
2023-02-26T04:40:59.410Z,1.83
2023-02-26T04:43:26.632Z,1.30
2023-02-26T04:45:53.804Z,1.30
2023-02-26T04:48:21.171Z,1.65
2023-02-26T04:50:48.413Z,1.30
2023-02-26T04:53:15.545Z,1.77
2023-02-26T04:55:43.195Z,1.50
2023-02-26T04:58:10.629Z,1.60
2023-02-26T05:00:37.853Z,1.42
2023-02-26T05:03:05.088Z,1.30
2023-02-26T05:05:32.557Z,1.50
2023-02-26T05:07:59.902Z,1.50
2023-02-26T05:10:27.051Z,1.40
2023-02-26T05:12:54.237Z,1.58
2023-02-26T05:15:21.438Z,1.30
2023-02-26T05:17:48.622Z,1.60
2023-02-26T05:20:15.860Z,1.50
2023-02-26T05:22:43.130Z,1.27
2023-02-26T05:25:12.773Z,1.80
2023-02-26T05:27:40.698Z,1.30
2023-02-26T05:30:08.451Z,2.00
2023-02-26T05:32:35.626Z,1.35
2023-02-26T05:35:02.808Z,1.20
2023-02-26T05:37:30.190Z,1.30
2023-02-26T05:39:57.375Z,1.50
2023-02-26T05:42:25.050Z,1.40
2023-02-26T05:44:52.247Z,1.60
2023-02-26T05:47:19.440Z,1.67
2023-02-26T05:49:46.664Z,1.40
2023-02-26T05:52:13.832Z,1.40
2023-02-26T05:54:41.080Z,1.60
2023-02-26T05:57:08.403Z,1.58
2023-02-26T05:59:35.534Z,1.30
2023-02-26T06:02:02.728Z,1.70
2023-02-26T06:04:29.884Z,1.58
2023-02-26T06:06:57.070Z,1.30
2023-02-26T06:09:24.186Z,1.33
2023-02-26T06:11:51.405Z,1.20
2023-02-26T06:14:18.568Z,1.58
2023-02-26T06:16:45.754Z,1.33
2023-02-26T06:19:13.016Z,1.42
2023-02-26T06:21:40.214Z,1.85
2023-02-26T06:24:07.591Z,1.63
2023-02-26T06:26:34.788Z,1.58
2023-02-26T06:29:02.340Z,1.75
2023-02-26T06:31:29.526Z,1.40
2023-02-26T06:33:57.885Z,1.70
2023-02-26T06:36:25.368Z,1.40
2023-02-26T06:38:52.777Z,1.60
2023-02-26T06:41:19.991Z,1.80
2023-02-26T06:43:47.152Z,1.55
2023-02-26T06:46:14.437Z,1.50
2023-02-26T06:48:41.608Z,1.50
2023-02-26T06:51:09.777Z,1.60
2023-02-26T06:53:36.967Z,1.30
2023-02-26T06:56:04.603Z,1.58
2023-02-26T06:58:31.759Z,2.40
2023-02-26T07:00:58.903Z,1.65
2023-02-26T07:03:26.089Z,1.60
2023-02-26T07:05:53.481Z,1.52
2023-02-26T07:08:20.681Z,1.95
2023-02-26T07:10:49.457Z,1.50
2023-02-26T07:13:17.589Z,1.80
2023-02-26T07:15:46.279Z,1.33
2023-02-26T07:18:13.653Z,1.73
2023-02-26T07:20:40.832Z,1.65
2023-02-26T07:23:08.064Z,1.63
2023-02-26T07:25:35.249Z,1.52
2023-02-26T07:28:02.419Z,1.70
2023-02-26T07:30:29.901Z,1.80
2023-02-26T07:32:57.564Z,1.40
2023-02-26T07:35:24.744Z,1.42
2023-02-26T07:37:52.290Z,1.67
2023-02-26T07:40:19.635Z,1.50
2023-02-26T07:42:46.830Z,1.60
2023-02-26T07:45:14.114Z,1.65
2023-02-26T07:47:41.309Z,1.98
2023-02-26T07:50:08.644Z,1.20
2023-02-26T07:52:35.813Z,1.75
2023-02-26T07:55:02.968Z,1.50
2023-02-26T07:57:30.120Z,1.77
2023-02-26T07:59:57.254Z,1.92
2023-02-26T08:02:24.480Z,1.70
2023-02-26T08:04:52.031Z,1.52
2023-02-26T08:07:19.481Z,1.95
2023-02-26T08:09:46.666Z,1.90
2023-02-26T08:12:13.870Z,1.58
2023-02-26T08:14:41.751Z,1.95
2023-02-26T08:17:09.656Z,1.83
2023-02-26T08:19:36.897Z,1.85
2023-02-26T08:22:04.476Z,1.98
2023-02-26T08:24:31.679Z,1.60
2023-02-26T08:26:58.795Z,1.35
2023-02-26T08:29:26.046Z,1.60
2023-02-26T08:31:53.259Z,1.73
2023-02-26T08:34:20.455Z,1.63
2023-02-26T08:36:47.618Z,1.80
2023-02-26T08:39:14.800Z,1.73
2023-02-26T08:41:41.924Z,1.95
2023-02-26T08:44:09.096Z,1.83
2023-02-26T08:46:36.264Z,1.77
2023-02-26T08:49:03.505Z,2.00
2023-02-26T08:51:30.702Z,1.83
2023-02-26T08:53:57.915Z,1.80
2023-02-26T08:56:25.278Z,1.90
2023-02-26T08:58:52.770Z,1.83
2023-02-26T09:01:19.907Z,2.08
2023-02-26T09:03:47.066Z,2.22
2023-02-26T09:06:15.299Z,2.10
2023-02-26T09:08:42.496Z,2.03
2023-02-26T09:11:10.458Z,2.00
2023-02-26T09:13:37.887Z,1.92
2023-02-26T09:16:05.242Z,2.38
2023-02-26T09:18:32.475Z,2.08
2023-02-26T09:20:59.681Z,2.15
2023-02-26T09:23:26.847Z,1.90
2023-02-26T09:25:54.926Z,2.00
2023-02-26T09:28:22.812Z,2.30
2023-02-26T09:30:53.017Z,3.03
2023-02-26T09:33:20.450Z,2.30
2023-02-26T09:35:51.624Z,2.20
2023-02-26T09:38:19.489Z,2.55
2023-02-26T09:40:52.825Z,2.20
2023-02-26T09:43:29.255Z,2.20
2023-02-26T09:45:57.937Z,2.00
2023-02-26T09:48:26.613Z,2.05
2023-02-26T09:50:55.873Z,1.98
2023-02-26T09:53:25.584Z,2.30
2023-02-26T09:55:53.833Z,2.05
2023-02-26T09:58:20.997Z,2.30
2023-02-26T10:00:54.377Z,2.33
2023-02-26T10:03:22.767Z,2.10
2023-02-26T10:05:49.915Z,2.40
2023-02-26T10:08:18.419Z,2.40
2023-02-26T10:10:50.573Z,2.17
2023-02-26T10:13:56.229Z,2.63
2023-02-26T10:16:28.032Z,2.38
2023-02-26T10:19:01.114Z,2.50
2023-02-26T10:21:33.130Z,2.50
2023-02-26T10:24:02.379Z,2.65
2023-02-26T10:26:35.967Z,2.90
2023-02-26T10:29:03.061Z,2.97
2023-02-26T10:31:34.230Z,3.00
2023-02-26T10:34:20.177Z,3.10
2023-02-26T10:37:13.449Z,2.38
2023-02-26T10:39:49.414Z,2.45
2023-02-26T10:42:19.850Z,2.38
2023-02-26T10:45:08.342Z,2.20
2023-02-26T10:47:44.392Z,1.92
2023-02-26T10:50:13.963Z,2.58
2023-02-26T10:52:43.050Z,2.30
2023-02-26T10:55:28.928Z,2.55
2023-02-26T10:58:01.257Z,2.97
2023-02-26T11:00:28.455Z,2.30
2023-02-26T11:02:56.248Z,2.70
2023-02-26T11:05:24.792Z,2.40
2023-02-26T11:07:55.134Z,2.20
2023-02-26T11:10:24.669Z,2.22
2023-02-26T11:12:53.092Z,2.30
2023-02-26T11:15:21.753Z,2.42
2023-02-26T11:17:49.560Z,2.35
2023-02-26T11:20:25.270Z,2.50
2023-02-26T11:22:54.151Z,2.30
2023-02-26T11:25:24.337Z,2.38
2023-02-26T11:27:53.769Z,2.33
2023-02-26T11:30:22.008Z,2.40
2023-02-26T11:32:53.385Z,2.78
2023-02-26T11:35:23.891Z,2.95
2023-02-26T11:37:55.811Z,2.75
2023-02-26T11:40:24.726Z,3.00
2023-02-26T11:42:56.649Z,2.70
2023-02-26T11:45:24.332Z,2.53
2023-02-26T11:47:57.524Z,2.60
2023-02-26T11:50:25.928Z,2.83
2023-02-26T11:52:57.368Z,3.10
2023-02-26T11:55:29.076Z,2.38
2023-02-26T11:57:56.893Z,2.78
2023-02-26T12:00:36.702Z,2.80
2023-02-26T12:03:06.946Z,2.70
2023-02-26T12:05:34.552Z,2.30
2023-02-26T12:08:02.716Z,2.20
2023-02-26T12:10:33.648Z,2.22
2023-02-26T12:13:07.041Z,2.17
2023-02-26T12:15:40.810Z,2.10
2023-02-26T12:18:19.499Z,1.92
2023-02-26T12:20:52.726Z,1.85
2023-02-26T12:23:35.880Z,2.22
2023-02-26T12:26:03.021Z,1.92
2023-02-26T12:28:49.231Z,2.10
2023-02-26T12:31:19.589Z,2.10
2023-02-26T12:34:06.299Z,2.10
2023-02-26T12:36:52.307Z,2.22
2023-02-26T12:39:37.887Z,2.20
2023-02-26T12:42:23.141Z,2.17
2023-02-26T12:47:18.528Z,1.38
2023-02-26T12:49:48.874Z,1.77
2023-02-26T12:52:16.531Z,1.88
2023-02-26T12:54:58.950Z,1.75
2023-02-26T12:57:36.145Z,1.70
2023-02-26T13:00:12.932Z,2.05
2023-02-26T13:02:40.124Z,1.80
2023-02-26T13:05:13.178Z,1.88
2023-02-26T13:07:55.723Z,1.85
2023-02-26T13:10:24.262Z,1.70
2023-02-26T13:13:03.415Z,1.60
2023-02-26T13:15:42.699Z,1.55
2023-02-26T13:18:09.869Z,1.58
2023-02-26T13:20:38.312Z,1.40
2023-02-26T13:23:05.417Z,1.60
2023-02-26T13:25:49.026Z,1.67
2023-02-26T13:28:25.438Z,1.80
2023-02-26T13:30:57.221Z,1.83
2023-02-26T13:33:27.682Z,1.58
2023-02-26T13:35:56.051Z,1.50
2023-02-26T13:38:36.975Z,1.50
2023-02-26T13:41:19.445Z,1.77
2023-02-26T13:43:52.382Z,1.40
2023-02-26T13:46:21.185Z,1.67
2023-02-26T13:49:07.160Z,1.90
2023-02-26T13:51:37.316Z,1.65
2023-02-26T13:54:09.387Z,2.20
2023-02-26T13:56:36.552Z,2.00
2023-02-26T13:59:03.724Z,2.40
2023-02-26T14:01:49.236Z,2.38
2023-02-26T14:04:22.603Z,2.00
2023-02-26T14:06:54.215Z,1.80
2023-02-26T14:09:25.856Z,2.00
2023-02-26T14:11:55.847Z,2.00
2023-02-26T14:14:22.990Z,1.60
2023-02-26T14:16:53.599Z,1.40
2023-02-26T14:19:44.099Z,1.38
2023-02-26T14:22:25.942Z,1.52
2023-02-26T14:24:54.942Z,1.40
2023-02-26T14:27:24.784Z,1.90
2023-02-26T14:29:58.242Z,1.40
2023-02-26T14:32:33.188Z,1.67
2023-02-26T14:35:20.650Z,1.70
2023-02-26T14:37:58.638Z,1.58
2023-02-26T14:40:26.220Z,1.98
2023-02-26T14:42:55.665Z,1.80
2023-02-26T14:45:22.776Z,1.80
2023-02-26T14:47:51.123Z,2.13
2023-02-26T14:50:20.934Z,2.15
2023-02-26T14:52:48.168Z,1.83
2023-02-26T14:55:19.876Z,1.92
2023-02-26T14:57:50.038Z,1.83
2023-02-26T15:00:32.168Z,1.85
2023-02-26T15:03:17.317Z,1.67
2023-02-26T15:08:26.786Z,1.73
2023-02-26T15:11:12.714Z,1.80
2023-02-26T15:13:58.661Z,1.70
2023-02-26T15:16:48.929Z,1.67
2023-02-26T15:19:24.375Z,1.83
2023-02-26T15:22:01.365Z,1.90
2023-02-26T15:24:30.124Z,1.83
2023-02-26T15:27:04.777Z,1.60
2023-02-26T15:29:33.045Z,1.95
2023-02-26T15:32:03.227Z,2.05
2023-02-26T15:34:30.904Z,1.70
2023-02-26T15:36:58.852Z,2.22
2023-02-26T15:39:26.505Z,2.42
2023-02-26T15:41:55.003Z,1.85
2023-02-26T15:44:24.961Z,1.80
2023-02-26T15:46:55.922Z,2.20
2023-02-26T15:49:43.206Z,2.10
2023-02-26T15:52:13.541Z,2.08
2023-02-26T15:54:42.655Z,2.25
2023-02-26T15:57:10.902Z,2.30
2023-02-26T15:59:42.397Z,2.13
2023-02-26T16:02:12.329Z,2.30
2023-02-26T16:04:39.619Z,2.20
2023-02-26T16:07:06.901Z,2.53
2023-02-26T16:09:39.199Z,2.10
2023-02-26T16:12:11.886Z,2.47
2023-02-26T16:14:40.582Z,2.42
2023-02-26T16:17:08.991Z,2.85
2023-02-26T16:19:45.127Z,2.95
2023-02-26T16:22:32.823Z,2.50
2023-02-26T16:25:03.483Z,2.58
2023-02-26T16:27:31.768Z,2.58
2023-02-26T16:30:00.179Z,1.85
2023-02-26T16:32:28.786Z,1.60
2023-02-26T16:34:57.534Z,1.55
2023-02-26T16:37:32.690Z,1.77
2023-02-26T16:40:16.610Z,1.50
2023-02-26T16:42:46.732Z,1.70
2023-02-26T16:45:32.488Z,1.90
2023-02-26T16:47:59.844Z,1.45
2023-02-26T16:50:28.421Z,1.55
2023-02-26T16:53:04.872Z,1.77
2023-02-26T16:55:34.188Z,1.75
2023-02-26T16:58:06.153Z,1.63
2023-02-26T17:00:36.167Z,1.50
2023-02-26T17:03:10.668Z,2.05
2023-02-26T17:05:40.303Z,2.00
2023-02-26T17:08:16.302Z,1.77
2023-02-26T17:10:48.521Z,1.98
2023-02-26T17:13:16.023Z,1.83
2023-02-26T17:15:43.192Z,2.03
2023-02-26T17:18:10.381Z,1.83
2023-02-26T17:20:38.705Z,2.10
2023-02-26T17:23:08.793Z,2.25
2023-02-26T17:25:37.616Z,2.42
2023-02-26T17:28:05.225Z,2.33
2023-02-26T17:30:33.623Z,2.20
2023-02-26T17:33:04.952Z,2.08
2023-02-26T17:35:32.370Z,2.00
2023-02-26T17:38:00.581Z,1.92
2023-02-26T17:40:32.209Z,1.95
2023-02-26T17:43:00.159Z,1.77
2023-02-26T17:45:27.477Z,1.70
2023-02-26T17:47:54.723Z,2.00
2023-02-26T17:50:21.830Z,1.70
2023-02-26T17:52:49.028Z,1.77
2023-02-26T17:55:16.237Z,1.63
2023-02-26T17:57:43.465Z,1.60
2023-02-26T18:00:14.807Z,1.63
2023-02-26T18:02:42.100Z,1.23
2023-02-26T18:05:09.771Z,1.50
2023-02-26T18:07:37.205Z,1.77
2023-02-26T18:10:05.229Z,1.75
2023-02-26T18:12:32.444Z,2.00
2023-02-26T18:14:59.644Z,1.90
2023-02-26T18:17:27.942Z,1.73
2023-02-26T18:19:55.381Z,1.67
2023-02-26T18:22:27.448Z,1.95
2023-02-26T18:24:57.656Z,2.30
2023-02-26T18:27:26.291Z,2.20
2023-02-26T18:29:53.958Z,1.95
2023-02-26T18:32:25.279Z,2.03
2023-02-26T18:34:52.805Z,2.10
2023-02-26T18:37:21.487Z,2.25
2023-02-26T18:39:48.688Z,2.22
2023-02-26T18:42:26.409Z,2.10
2023-02-26T18:44:54.173Z,2.28
2023-02-26T18:47:22.229Z,1.58
2023-02-26T18:49:50.473Z,2.20
2023-02-26T18:52:17.810Z,2.25
2023-02-26T18:54:45.266Z,2.28
2023-02-26T18:57:12.414Z,2.50
2023-02-26T18:59:39.681Z,2.50
2023-02-26T19:02:08.049Z,2.28
2023-02-26T19:04:35.461Z,2.83
2023-02-26T19:07:03.713Z,3.15
2023-02-26T19:09:31.032Z,2.70
2023-02-26T19:11:58.586Z,2.83
2023-02-26T19:14:25.864Z,2.72
2023-02-26T19:16:53.042Z,3.47
2023-02-26T19:19:20.354Z,2.83
2023-02-26T19:21:47.908Z,2.75
2023-02-26T19:24:15.394Z,2.90
2023-02-26T19:26:42.997Z,2.78
2023-02-26T19:29:17.131Z,3.20
2023-02-26T19:31:45.408Z,2.80
2023-02-26T19:34:12.770Z,3.00
2023-02-26T19:36:42.836Z,2.95
2023-02-26T19:39:11.858Z,2.80
2023-02-26T19:41:39.117Z,2.83
2023-02-26T19:44:06.526Z,2.72
2023-02-26T19:46:33.816Z,2.75
2023-02-26T19:49:00.995Z,2.83
2023-02-26T19:51:28.678Z,2.45
2023-02-26T19:53:56.061Z,2.75
2023-02-26T19:56:23.381Z,2.63
2023-02-26T19:58:50.550Z,2.78
2023-02-26T20:01:18.329Z,2.90
2023-02-26T20:03:48.002Z,3.00
2023-02-26T20:06:16.142Z,2.90
2023-02-26T20:08:43.342Z,3.03
2023-02-26T20:11:10.478Z,3.28
2023-02-26T20:13:37.744Z,2.95
2023-02-26T20:16:05.896Z,3.17
2023-02-26T20:18:33.403Z,3.10
2023-02-26T20:21:01.482Z,3.17
2023-02-26T20:23:28.872Z,3.05
2023-02-26T20:25:57.098Z,3.40
2023-02-26T20:28:25.110Z,3.30
2023-02-26T20:30:52.680Z,3.08
2023-02-26T20:33:21.088Z,3.10
2023-02-26T20:35:48.939Z,3.17
2023-02-26T20:38:17.433Z,2.80
2023-02-26T20:40:45.054Z,2.72
2023-02-26T20:43:12.208Z,3.55
2023-02-26T20:45:39.791Z,3.15
2023-02-26T20:48:07.736Z,3.30
2023-02-26T20:50:36.223Z,2.90
2023-02-26T20:53:04.590Z,3.03
2023-02-26T20:55:31.756Z,3.67
2023-02-26T20:57:58.927Z,3.53
2023-02-26T21:00:26.298Z,3.20
2023-02-26T21:02:53.648Z,3.22
2023-02-26T21:05:20.988Z,2.70
2023-02-26T21:07:48.350Z,3.20
2023-02-26T21:10:16.399Z,3.00
2023-02-26T21:12:43.757Z,3.13
2023-02-26T21:15:11.702Z,3.38
2023-02-26T21:17:39.858Z,3.05
2023-02-26T21:20:07.638Z,3.55
2023-02-26T21:22:38.509Z,3.33
2023-02-26T21:25:06.525Z,3.58
2023-02-26T21:27:37.086Z,3.72
2023-02-26T21:30:08.278Z,3.17
2023-02-26T21:32:35.533Z,3.05
2023-02-26T21:35:02.908Z,3.33
2023-02-26T21:37:30.203Z,3.45
2023-02-26T21:39:57.551Z,3.20
2023-02-26T21:42:25.425Z,3.17
2023-02-26T21:44:52.555Z,4.05
2023-02-26T21:47:19.719Z,4.10
2023-02-26T21:49:46.848Z,3.50
2023-02-26T21:52:14.016Z,3.53
2023-02-26T21:54:41.149Z,3.67
2023-02-26T21:57:08.303Z,3.08
2023-02-26T21:59:35.731Z,3.35
2023-02-26T22:02:03.172Z,3.50
2023-02-26T22:04:30.395Z,3.30
2023-02-26T22:06:57.732Z,3.55
2023-02-26T22:09:24.925Z,3.25
2023-02-26T22:11:52.082Z,3.35
2023-02-26T22:14:19.207Z,3.80
2023-02-26T22:16:46.374Z,3.40
2023-02-26T22:19:13.615Z,3.42
2023-02-26T22:21:40.770Z,3.08
2023-02-26T22:24:08.633Z,3.13
2023-02-26T22:26:36.022Z,3.42
2023-02-26T22:29:03.787Z,3.13
2023-02-26T22:31:34.487Z,3.42
2023-02-26T22:34:01.718Z,4.03
2023-02-26T22:36:31.237Z,3.38
2023-02-26T22:38:58.811Z,3.38
2023-02-26T22:41:25.992Z,3.08
2023-02-26T22:43:54.111Z,3.35
2023-02-26T22:46:24.152Z,3.55
2023-02-26T22:48:51.538Z,3.25
2023-02-26T22:51:18.675Z,3.58
2023-02-26T22:53:46.048Z,3.30
2023-02-26T22:56:13.188Z,3.70
2023-02-26T22:58:40.390Z,3.30
2023-02-26T23:01:08.159Z,3.50
2023-02-26T23:03:35.512Z,3.17
2023-02-26T23:06:02.630Z,3.03
2023-02-26T23:08:29.824Z,3.40
2023-02-26T23:10:58.339Z,3.45
2023-02-26T23:13:26.199Z,3.13
2023-02-26T23:15:53.699Z,3.50
2023-02-26T23:18:21.449Z,3.13
2023-02-26T23:20:48.909Z,3.50
2023-02-26T23:23:16.563Z,3.10
2023-02-26T23:25:44.148Z,3.03
2023-02-26T23:28:11.920Z,2.97
2023-02-26T23:30:39.226Z,2.97
2023-02-26T23:33:07.371Z,3.08
2023-02-26T23:35:35.307Z,2.67
2023-02-26T23:38:02.801Z,2.53
2023-02-26T23:40:30.046Z,2.83
2023-02-26T23:42:57.235Z,2.92
2023-02-26T23:45:24.681Z,3.30
2023-02-26T23:47:52.138Z,2.88
2023-02-26T23:50:19.420Z,2.85
2023-02-26T23:52:46.565Z,2.85
2023-02-26T23:55:13.866Z,2.90
2023-02-26T23:57:40.998Z,2.85
